sensor_id;sensor_type;location;lat;lon;timestamp;pressure;altitude;pressure_sealevel;temperature;humidity
43683;BME280;29285;52.128;21.060;2023-04-05T00:01:41;100940.41;;;1.78;74.76
43683;BME280;29285;52.128;21.060;2023-04-05T00:06:43;100935.95;;;1.71;74.86
43683;BME280;29285;52.128;21.060;2023-04-05T00:11:46;100930.94;;;1.69;75.11
43683;BME280;29285;52.128;21.060;2023-04-05T00:16:48;100928.05;;;1.64;75.06
43683;BME280;29285;52.128;21.060;2023-04-05T00:21:50;100914.67;;;1.52;74.81
43683;BME280;29285;52.128;21.060;2023-04-05T00:26:54;100910.13;;;1.55;75.01
43683;BME280;29285;52.128;21.060;2023-04-05T00:31:57;100901.85;;;1.53;75.42
43683;BME280;29285;52.128;21.060;2023-04-05T00:36:58;100898.54;;;1.44;75.46
43683;BME280;29285;52.128;21.060;2023-04-05T00:42:03;100892.67;;;1.31;75.15
43683;BME280;29285;52.128;21.060;2023-04-05T00:47:06;100892.21;;;1.22;75.17
43683;BME280;29285;52.128;21.060;2023-04-05T00:52:08;100889.48;;;1.16;75.30
43683;BME280;29285;52.128;21.060;2023-04-05T00:57:12;100886.51;;;1.14;75.42
43683;BME280;29285;52.128;21.060;2023-04-05T01:02:19;100884.14;;;1.21;75.83
43683;BME280;29285;52.128;21.060;2023-04-05T01:07:30;100885.26;;;1.29;76.26
43683;BME280;29285;52.128;21.060;2023-04-05T01:12:35;100886.38;;;1.32;76.54
43683;BME280;29285;52.128;21.060;2023-04-05T01:17:37;100880.59;;;1.27;76.82
43683;BME280;29285;52.128;21.060;2023-04-05T01:28:09;100878.63;;;1.19;76.87
43683;BME280;29285;52.128;21.060;2023-04-05T01:38:30;100882.06;;;1.14;77.17
43683;BME280;29285;52.128;21.060;2023-04-05T01:43:32;100881.59;;;1.10;77.25
43683;BME280;29285;52.128;21.060;2023-04-05T01:48:34;100879.09;;;1.07;77.33
43683;BME280;29285;52.128;21.060;2023-04-05T01:53:36;100882.23;;;1.03;77.29
43683;BME280;29285;52.128;21.060;2023-04-05T01:58:38;100877.73;;;1.01;77.69
43683;BME280;29285;52.128;21.060;2023-04-05T02:03:40;100879.95;;;1.01;77.80
43683;BME280;29285;52.128;21.060;2023-04-05T02:08:43;100881.90;;;0.98;77.92
43683;BME280;29285;52.128;21.060;2023-04-05T02:13:45;100884.63;;;0.92;77.94
43683;BME280;29285;52.128;21.060;2023-04-05T02:18:47;100884.37;;;0.90;77.94
43683;BME280;29285;52.128;21.060;2023-04-05T02:23:51;100883.84;;;0.89;78.16
43683;BME280;29285;52.128;21.060;2023-04-05T02:28:53;100886.46;;;0.85;78.40
43683;BME280;29285;52.128;21.060;2023-04-05T02:33:55;100885.80;;;0.81;78.48
43683;BME280;29285;52.128;21.060;2023-04-05T02:38:58;100882.81;;;0.79;78.50
43683;BME280;29285;52.128;21.060;2023-04-05T02:44:00;100879.97;;;0.75;78.59
43683;BME280;29285;52.128;21.060;2023-04-05T02:49:01;100879.46;;;0.70;78.55
43683;BME280;29285;52.128;21.060;2023-04-05T02:54:03;100883.94;;;0.66;78.79
43683;BME280;29285;52.128;21.060;2023-04-05T02:59:05;100884.20;;;0.63;78.96
43683;BME280;29285;52.128;21.060;2023-04-05T03:04:07;100879.75;;;0.58;78.98
43683;BME280;29285;52.128;21.060;2023-04-05T03:09:09;100880.55;;;0.51;79.18
43683;BME280;29285;52.128;21.060;2023-04-05T03:14:11;100881.85;;;0.49;79.23
43683;BME280;29285;52.128;21.060;2023-04-05T03:19:12;100886.33;;;0.45;79.30
43683;BME280;29285;52.128;21.060;2023-04-05T03:24:17;100890.36;;;0.44;79.48
43683;BME280;29285;52.128;21.060;2023-04-05T03:29:19;100885.29;;;0.39;79.65
43683;BME280;29285;52.128;21.060;2023-04-05T03:34:20;100886.73;;;0.32;79.82
43683;BME280;29285;52.128;21.060;2023-04-05T03:39:23;100881.10;;;0.27;79.82
43683;BME280;29285;52.128;21.060;2023-04-05T03:44:24;100882.69;;;0.23;79.93
43683;BME280;29285;52.128;21.060;2023-04-05T03:49:26;100884.19;;;0.23;80.14
43683;BME280;29285;52.128;21.060;2023-04-05T03:54:28;100884.84;;;0.22;80.29
43683;BME280;29285;52.128;21.060;2023-04-05T03:59:30;100887.64;;;0.24;80.60
43683;BME280;29285;52.128;21.060;2023-04-05T04:04:32;100884.77;;;0.25;80.76
43683;BME280;29285;52.128;21.060;2023-04-05T04:09:34;100885.80;;;0.25;80.96
43683;BME280;29285;52.128;21.060;2023-04-05T04:14:36;100893.52;;;0.26;81.16
43683;BME280;29285;52.128;21.060;2023-04-05T04:19:38;100891.27;;;0.35;81.46
43683;BME280;29285;52.128;21.060;2023-04-05T04:24:39;100892.53;;;0.42;81.90
43683;BME280;29285;52.128;21.060;2023-04-05T04:29:41;100895.52;;;0.44;82.26
43683;BME280;29285;52.128;21.060;2023-04-05T04:34:50;100896.91;;;0.45;82.25
43683;BME280;29285;52.128;21.060;2023-04-05T04:39:54;100898.54;;;0.47;82.44
43683;BME280;29285;52.128;21.060;2023-04-05T04:44:56;100902.55;;;0.50;82.46
43683;BME280;29285;52.128;21.060;2023-04-05T04:49:58;100900.38;;;0.47;82.55
43683;BME280;29285;52.128;21.060;2023-04-05T04:55:00;100895.98;;;0.53;82.79
43683;BME280;29285;52.128;21.060;2023-04-05T05:00:03;100895.73;;;0.66;83.27
43683;BME280;29285;52.128;21.060;2023-04-05T05:05:12;100893.89;;;0.67;83.35
43683;BME280;29285;52.128;21.060;2023-04-05T05:10:14;100894.67;;;0.65;83.49
43683;BME280;29285;52.128;21.060;2023-04-05T05:15:19;100897.38;;;0.69;83.62
43683;BME280;29285;52.128;21.060;2023-04-05T05:20:21;100899.89;;;0.78;83.95
43683;BME280;29285;52.128;21.060;2023-04-05T05:25:23;100901.68;;;0.86;84.18
43683;BME280;29285;52.128;21.060;2023-04-05T05:30:27;100903.91;;;0.91;84.45
43683;BME280;29285;52.128;21.060;2023-04-05T05:35:29;100906.05;;;1.00;84.68
43683;BME280;29285;52.128;21.060;2023-04-05T05:40:31;100908.84;;;1.02;84.83
43683;BME280;29285;52.128;21.060;2023-04-05T05:45:37;100908.23;;;1.04;85.07
43683;BME280;29285;52.128;21.060;2023-04-05T05:50:39;100911.50;;;1.15;85.13
43683;BME280;29285;52.128;21.060;2023-04-05T05:55:42;100914.98;;;1.17;85.49
43683;BME280;29285;52.128;21.060;2023-04-05T06:00:44;100916.57;;;1.24;85.68
43683;BME280;29285;52.128;21.060;2023-04-05T06:05:51;100919.03;;;1.38;86.18
43683;BME280;29285;52.128;21.060;2023-04-05T06:10:55;100927.75;;;1.43;86.33
43683;BME280;29285;52.128;21.060;2023-04-05T06:15:59;100929.39;;;1.36;86.33
43683;BME280;29285;52.128;21.060;2023-04-05T06:21:01;100926.95;;;1.45;86.62
43683;BME280;29285;52.128;21.060;2023-04-05T06:26:02;100930.71;;;1.57;86.83
43683;BME280;29285;52.128;21.060;2023-04-05T06:31:04;100931.38;;;1.62;87.10
43683;BME280;29285;52.128;21.060;2023-04-05T06:36:06;100934.42;;;1.66;87.19
43683;BME280;29285;52.128;21.060;2023-04-05T06:41:08;100938.38;;;1.61;87.02
43683;BME280;29285;52.128;21.060;2023-04-05T06:46:09;100943.05;;;1.63;87.14
43683;BME280;29285;52.128;21.060;2023-04-05T06:51:14;100942.91;;;1.75;87.26
43683;BME280;29285;52.128;21.060;2023-04-05T06:56:23;100946.64;;;1.74;87.58
43683;BME280;29285;52.128;21.060;2023-04-05T07:01:27;100944.94;;;1.87;87.70
43683;BME280;29285;52.128;21.060;2023-04-05T07:06:30;100946.76;;;1.96;88.29
43683;BME280;29285;52.128;21.060;2023-04-05T07:11:35;100952.42;;;2.09;88.46
43683;BME280;29285;52.128;21.060;2023-04-05T07:16:36;100957.20;;;2.14;88.61
43683;BME280;29285;52.128;21.060;2023-04-05T07:21:38;100957.39;;;2.15;88.65
43683;BME280;29285;52.128;21.060;2023-04-05T07:26:43;100956.08;;;2.23;88.82
43683;BME280;29285;52.128;21.060;2023-04-05T07:31:44;100955.05;;;2.35;89.26
43683;BME280;29285;52.128;21.060;2023-04-05T07:36:46;100953.46;;;2.40;89.43
43683;BME280;29285;52.128;21.060;2023-04-05T07:41:48;100956.22;;;2.46;89.43
43683;BME280;29285;52.128;21.060;2023-04-05T07:46:49;100953.61;;;2.52;89.69
43683;BME280;29285;52.128;21.060;2023-04-05T07:51:55;100951.48;;;2.55;89.53
43683;BME280;29285;52.128;21.060;2023-04-05T07:56:57;100953.02;;;2.62;89.54
43683;BME280;29285;52.128;21.060;2023-04-05T08:01:58;100954.40;;;2.69;89.70
43683;BME280;29285;52.128;21.060;2023-04-05T08:07:01;100956.60;;;2.74;89.79
43683;BME280;29285;52.128;21.060;2023-04-05T08:12:03;100954.60;;;2.84;90.00
43683;BME280;29285;52.128;21.060;2023-04-05T08:17:08;100959.85;;;2.81;89.66
43683;BME280;29285;52.128;21.060;2023-04-05T08:22:13;100961.92;;;2.82;89.57
43683;BME280;29285;52.128;21.060;2023-04-05T08:27:17;100965.36;;;2.82;89.43
43683;BME280;29285;52.128;21.060;2023-04-05T08:32:18;100957.83;;;2.83;89.09
43683;BME280;29285;52.128;21.060;2023-04-05T08:37:20;100959.67;;;2.87;89.16
43683;BME280;29285;52.128;21.060;2023-04-05T08:42:25;100962.10;;;2.88;88.86
43683;BME280;29285;52.128;21.060;2023-04-05T08:47:28;100962.14;;;2.90;89.09
43683;BME280;29285;52.128;21.060;2023-04-05T08:52:30;100964.55;;;2.90;88.75
43683;BME280;29285;52.128;21.060;2023-04-05T08:57:36;100959.83;;;2.93;88.78
43683;BME280;29285;52.128;21.060;2023-04-05T09:02:38;100965.45;;;2.99;88.71
43683;BME280;29285;52.128;21.060;2023-04-05T09:07:40;100965.17;;;3.09;88.71
43683;BME280;29285;52.128;21.060;2023-04-05T09:12:51;100969.44;;;3.08;88.37
43683;BME280;29285;52.128;21.060;2023-04-05T09:18:13;100962.71;;;3.13;88.47
43683;BME280;29285;52.128;21.060;2023-04-05T09:23:15;100963.64;;;3.23;88.60
43683;BME280;29285;52.128;21.060;2023-04-05T09:28:17;100965.56;;;3.18;88.35
43683;BME280;29285;52.128;21.060;2023-04-05T09:33:22;100961.63;;;3.18;88.15
43683;BME280;29285;52.128;21.060;2023-04-05T09:38:40;100960.45;;;3.33;88.50
43683;BME280;29285;52.128;21.060;2023-04-05T09:43:42;100965.41;;;3.41;88.61
43683;BME280;29285;52.128;21.060;2023-04-05T09:48:47;100964.95;;;3.35;88.30
43683;BME280;29285;52.128;21.060;2023-04-05T09:53:59;100961.74;;;3.37;88.36
43683;BME280;29285;52.128;21.060;2023-04-05T09:59:06;100963.86;;;3.40;88.29
43683;BME280;29285;52.128;21.060;2023-04-05T10:04:08;100956.36;;;3.49;88.28
43683;BME280;29285;52.128;21.060;2023-04-05T10:09:10;100958.05;;;3.56;88.70
43683;BME280;29285;52.128;21.060;2023-04-05T10:14:15;100953.38;;;3.62;88.37
43683;BME280;29285;52.128;21.060;2023-04-05T10:19:25;100950.52;;;3.72;88.50
43683;BME280;29285;52.128;21.060;2023-04-05T10:29:50;100950.96;;;3.94;88.61
43683;BME280;29285;52.128;21.060;2023-04-05T10:34:59;100949.95;;;3.94;88.58
43683;BME280;29285;52.128;21.060;2023-04-05T10:40:06;100951.84;;;3.87;88.12
43683;BME280;29285;52.128;21.060;2023-04-05T10:45:12;100948.98;;;3.81;87.57
43683;BME280;29285;52.128;21.060;2023-04-05T10:50:21;100947.15;;;3.84;87.57
43683;BME280;29285;52.128;21.060;2023-04-05T10:55:23;100944.52;;;3.81;87.25
43683;BME280;29285;52.128;21.060;2023-04-05T11:00:34;100945.47;;;3.85;87.03
43683;BME280;29285;52.128;21.060;2023-04-05T11:05:36;100947.13;;;3.81;86.59
43683;BME280;29285;52.128;21.060;2023-04-05T11:10:41;100949.79;;;3.79;86.31
43683;BME280;29285;52.128;21.060;2023-04-05T11:15:43;100951.46;;;3.76;86.18
43683;BME280;29285;52.128;21.060;2023-04-05T11:25:49;100945.86;;;3.79;85.63
43683;BME280;29285;52.128;21.060;2023-04-05T11:30:52;100943.55;;;3.68;85.26
43683;BME280;29285;52.128;21.060;2023-04-05T11:36:00;100941.75;;;3.71;85.00
43683;BME280;29285;52.128;21.060;2023-04-05T11:41:06;100943.85;;;3.73;84.64
43683;BME280;29285;52.128;21.060;2023-04-05T11:46:08;100944.48;;;3.78;84.57
43683;BME280;29285;52.128;21.060;2023-04-05T11:51:10;100948.66;;;3.74;84.18
43683;BME280;29285;52.128;21.060;2023-04-05T11:56:11;100947.23;;;3.71;83.63
43683;BME280;29285;52.128;21.060;2023-04-05T12:01:16;100946.11;;;3.82;83.56
43683;BME280;29285;52.128;21.060;2023-04-05T12:06:20;100945.60;;;3.91;83.31
43683;BME280;29285;52.128;21.060;2023-04-05T12:11:23;100940.94;;;4.07;83.41
43683;BME280;29285;52.128;21.060;2023-04-05T12:16:25;100939.61;;;3.92;82.80
43683;BME280;29285;52.128;21.060;2023-04-05T12:21:27;100934.16;;;3.86;81.82
43683;BME280;29285;52.128;21.060;2023-04-05T12:26:29;100936.04;;;3.62;80.88
43683;BME280;29285;52.128;21.060;2023-04-05T12:31:37;100934.48;;;3.53;80.06
43683;BME280;29285;52.128;21.060;2023-04-05T12:36:43;100931.96;;;3.80;80.54
43683;BME280;29285;52.128;21.060;2023-04-05T12:41:54;100927.45;;;4.11;81.09
43683;BME280;29285;52.128;21.060;2023-04-05T12:46:59;100927.29;;;4.38;81.40
43683;BME280;29285;52.128;21.060;2023-04-05T12:52:02;100931.17;;;4.53;81.45
43683;BME280;29285;52.128;21.060;2023-04-05T12:57:04;100928.89;;;4.51;81.03
43683;BME280;29285;52.128;21.060;2023-04-05T13:02:11;100926.51;;;4.52;80.49
43683;BME280;29285;52.128;21.060;2023-04-05T13:07:14;100924.02;;;4.67;80.44
43683;BME280;29285;52.128;21.060;2023-04-05T13:12:16;100923.14;;;4.86;80.57
43683;BME280;29285;52.128;21.060;2023-04-05T13:17:18;100924.73;;;4.99;80.65
43683;BME280;29285;52.128;21.060;2023-04-05T13:22:20;100926.57;;;5.05;80.35
43683;BME280;29285;52.128;21.060;2023-04-05T13:27:22;100929.05;;;5.11;80.24
43683;BME280;29285;52.128;21.060;2023-04-05T13:32:26;100927.34;;;5.11;80.07
43683;BME280;29285;52.128;21.060;2023-04-05T13:37:28;100928.29;;;5.06;79.55
43683;BME280;29285;52.128;21.060;2023-04-05T13:42:30;100927.69;;;5.00;79.06
43683;BME280;29285;52.128;21.060;2023-04-05T13:47:31;100927.50;;;5.33;79.00
43683;BME280;29285;52.128;21.060;2023-04-05T13:52:33;100918.14;;;6.04;80.31
43683;BME280;29285;52.128;21.060;2023-04-05T13:57:35;100913.27;;;6.47;80.81
43683;BME280;29285;52.128;21.060;2023-04-05T14:02:37;100913.74;;;6.59;80.80
43683;BME280;29285;52.128;21.060;2023-04-05T14:07:39;100911.77;;;6.34;79.47
43683;BME280;29285;52.128;21.060;2023-04-05T14:12:41;100918.79;;;6.14;78.34
43683;BME280;29285;52.128;21.060;2023-04-05T14:17:43;100919.35;;;6.17;77.96
43683;BME280;29285;52.128;21.060;2023-04-05T14:22:45;100916.13;;;6.39;78.08
43683;BME280;29285;52.128;21.060;2023-04-05T14:27:47;100914.28;;;6.61;78.37
43683;BME280;29285;52.128;21.060;2023-04-05T14:32:48;100908.16;;;6.90;78.45
43683;BME280;29285;52.128;21.060;2023-04-05T14:37:50;100908.02;;;7.42;78.81
43683;BME280;29285;52.128;21.060;2023-04-05T14:42:52;100905.85;;;7.57;78.61
43683;BME280;29285;52.128;21.060;2023-04-05T14:47:54;100905.83;;;7.52;77.86
43683;BME280;29285;52.128;21.060;2023-04-05T14:52:56;100913.58;;;7.50;77.28
43683;BME280;29285;52.128;21.060;2023-04-05T14:57:57;100912.27;;;7.34;76.54
43683;BME280;29285;52.128;21.060;2023-04-05T15:02:59;100916.09;;;7.11;75.77
43683;BME280;29285;52.128;21.060;2023-04-05T15:08:01;100916.05;;;6.85;74.81
43683;BME280;29285;52.128;21.060;2023-04-05T15:13:03;100916.94;;;6.70;74.34
43683;BME280;29285;52.128;21.060;2023-04-05T15:18:04;100920.17;;;6.62;74.14
43683;BME280;29285;52.128;21.060;2023-04-05T15:23:08;100923.91;;;6.77;74.35
43683;BME280;29285;52.128;21.060;2023-04-05T15:28:09;100926.45;;;6.71;74.30
43683;BME280;29285;52.128;21.060;2023-04-05T15:33:11;100938.83;;;6.50;73.86
43683;BME280;29285;52.128;21.060;2023-04-05T15:38:13;100942.04;;;6.29;73.35
43683;BME280;29285;52.128;21.060;2023-04-05T15:43:18;100942.05;;;6.14;72.93
43683;BME280;29285;52.128;21.060;2023-04-05T15:48:20;100945.98;;;6.01;72.58
43683;BME280;29285;52.128;21.060;2023-04-05T15:53:22;100948.11;;;5.91;72.49
43683;BME280;29285;52.128;21.060;2023-04-05T15:58:24;100947.93;;;5.77;72.36
43683;BME280;29285;52.128;21.060;2023-04-05T16:03:26;100950.13;;;5.62;71.86
43683;BME280;29285;52.128;21.060;2023-04-05T16:08:27;100948.89;;;5.60;72.12
43683;BME280;29285;52.128;21.060;2023-04-05T16:13:29;100941.65;;;5.60;72.32
43683;BME280;29285;52.128;21.060;2023-04-05T16:18:34;100937.88;;;5.48;71.95
43683;BME280;29285;52.128;21.060;2023-04-05T16:23:36;100932.91;;;5.37;71.54
43683;BME280;29285;52.128;21.060;2023-04-05T16:28:38;100933.23;;;5.36;71.63
43683;BME280;29285;52.128;21.060;2023-04-05T16:33:40;100932.35;;;5.35;71.66
43683;BME280;29285;52.128;21.060;2023-04-05T16:38:44;100932.67;;;5.32;71.49
43683;BME280;29285;52.128;21.060;2023-04-05T16:43:47;100933.48;;;5.31;71.42
43683;BME280;29285;52.128;21.060;2023-04-05T16:48:49;100937.55;;;5.26;71.54
43683;BME280;29285;52.128;21.060;2023-04-05T16:53:50;100939.38;;;5.21;71.17
43683;BME280;29285;52.128;21.060;2023-04-05T16:58:52;100941.51;;;5.14;71.00
43683;BME280;29285;52.128;21.060;2023-04-05T17:03:56;100942.09;;;5.08;70.78
43683;BME280;29285;52.128;21.060;2023-04-05T17:09:03;100940.67;;;5.06;70.85
43683;BME280;29285;52.128;21.060;2023-04-05T17:14:15;100943.02;;;5.02;70.66
43683;BME280;29285;52.128;21.060;2023-04-05T17:19:16;100953.81;;;5.00;70.56
43683;BME280;29285;52.128;21.060;2023-04-05T17:24:18;100956.73;;;4.98;70.70
43683;BME280;29285;52.128;21.060;2023-04-05T17:29:20;100953.59;;;4.97;70.57
43683;BME280;29285;52.128;21.060;2023-04-05T17:34:22;100958.85;;;4.92;70.47
43683;BME280;29285;52.128;21.060;2023-04-05T17:39:24;100971.30;;;4.86;70.33
43683;BME280;29285;52.128;21.060;2023-04-05T17:44:26;100968.84;;;4.84;70.11
43683;BME280;29285;52.128;21.060;2023-04-05T17:49:31;100976.92;;;4.84;69.97
43683;BME280;29285;52.128;21.060;2023-04-05T17:54:33;100988.30;;;4.85;69.93
43683;BME280;29285;52.128;21.060;2023-04-05T17:59:37;100987.80;;;4.85;70.14
43683;BME280;29285;52.128;21.060;2023-04-05T18:04:39;100989.41;;;4.89;70.12
43683;BME280;29285;52.128;21.060;2023-04-05T18:09:41;100987.94;;;4.84;70.14
43683;BME280;29285;52.128;21.060;2023-04-05T18:14:43;100995.23;;;4.79;70.15
43683;BME280;29285;52.128;21.060;2023-04-05T18:19:45;100996.04;;;4.75;69.84
43683;BME280;29285;52.128;21.060;2023-04-05T18:24:49;100998.92;;;4.73;69.96
43683;BME280;29285;52.128;21.060;2023-04-05T18:29:51;101005.31;;;4.75;70.00
43683;BME280;29285;52.128;21.060;2023-04-05T18:34:53;101009.46;;;4.76;69.81
43683;BME280;29285;52.128;21.060;2023-04-05T18:39:54;101008.61;;;4.77;69.90
43683;BME280;29285;52.128;21.060;2023-04-05T18:44:56;101012.33;;;4.73;69.54
43683;BME280;29285;52.128;21.060;2023-04-05T18:49:58;101016.37;;;4.69;69.51
43683;BME280;29285;52.128;21.060;2023-04-05T18:54:59;101018.76;;;4.67;69.61
43683;BME280;29285;52.128;21.060;2023-04-05T19:00:02;101020.40;;;4.63;69.58
43683;BME280;29285;52.128;21.060;2023-04-05T19:05:04;101015.59;;;4.64;69.36
43683;BME280;29285;52.128;21.060;2023-04-05T19:10:06;101018.52;;;4.64;69.38
43683;BME280;29285;52.128;21.060;2023-04-05T19:15:08;101021.60;;;4.63;69.41
43683;BME280;29285;52.128;21.060;2023-04-05T19:20:10;101025.40;;;4.64;69.40
43683;BME280;29285;52.128;21.060;2023-04-05T19:25:12;101029.88;;;4.65;69.38
43683;BME280;29285;52.128;21.060;2023-04-05T19:30:14;101032.61;;;4.64;69.32
43683;BME280;29285;52.128;21.060;2023-04-05T19:35:16;101031.05;;;4.64;69.22
43683;BME280;29285;52.128;21.060;2023-04-05T19:40:18;101032.45;;;4.64;69.38
43683;BME280;29285;52.128;21.060;2023-04-05T19:45:27;101028.64;;;4.63;69.28
43683;BME280;29285;52.128;21.060;2023-04-05T19:55:37;101030.92;;;4.57;69.23
43683;BME280;29285;52.128;21.060;2023-04-05T20:10:45;101023.64;;;4.53;69.19
43683;BME280;29285;52.128;21.060;2023-04-05T20:15:52;101024.34;;;4.45;69.18
43683;BME280;29285;52.128;21.060;2023-04-05T20:20:55;101020.27;;;4.40;68.97
43683;BME280;29285;52.128;21.060;2023-04-05T20:25:57;101012.89;;;4.40;68.72
43683;BME280;29285;52.128;21.060;2023-04-05T20:30:59;101010.36;;;4.42;68.85
43683;BME280;29285;52.128;21.060;2023-04-05T20:36:01;101014.16;;;4.43;69.07
43683;BME280;29285;52.128;21.060;2023-04-05T20:41:10;101013.45;;;4.42;69.05
43683;BME280;29285;52.128;21.060;2023-04-05T20:46:12;101014.90;;;4.46;69.19
43683;BME280;29285;52.128;21.060;2023-04-05T20:51:14;101009.03;;;4.54;69.43
43683;BME280;29285;52.128;21.060;2023-04-05T20:56:16;101011.56;;;4.60;69.48
43683;BME280;29285;52.128;21.060;2023-04-05T21:01:18;101009.58;;;4.64;69.32
43683;BME280;29285;52.128;21.060;2023-04-05T21:06:20;101006.42;;;4.61;69.28
43683;BME280;29285;52.128;21.060;2023-04-05T21:11:22;101002.95;;;4.59;69.16
43683;BME280;29285;52.128;21.060;2023-04-05T21:16:24;100999.81;;;4.56;69.11
43683;BME280;29285;52.128;21.060;2023-04-05T21:21:25;101003.63;;;4.50;68.71
43683;BME280;29285;52.128;21.060;2023-04-05T21:26:27;101008.16;;;4.44;68.62
43683;BME280;29285;52.128;21.060;2023-04-05T21:31:29;101003.50;;;4.44;68.56
43683;BME280;29285;52.128;21.060;2023-04-05T21:36:30;101000.06;;;4.43;68.74
43683;BME280;29285;52.128;21.060;2023-04-05T21:41:32;100997.29;;;4.42;68.67
43683;BME280;29285;52.128;21.060;2023-04-05T21:46:34;100989.42;;;4.35;68.42
43683;BME280;29285;52.128;21.060;2023-04-05T21:51:36;100985.16;;;4.27;68.18
43683;BME280;29285;52.128;21.060;2023-04-05T21:56:38;100986.05;;;4.21;68.14
43683;BME280;29285;52.128;21.060;2023-04-05T22:01:43;100979.18;;;4.13;68.15
43683;BME280;29285;52.128;21.060;2023-04-05T22:06:44;100977.38;;;4.00;67.66
43683;BME280;29285;52.128;21.060;2023-04-05T22:11:47;100974.43;;;3.99;67.61
43683;BME280;29285;52.128;21.060;2023-04-05T22:16:49;100973.14;;;4.03;67.63
43683;BME280;29285;52.128;21.060;2023-04-05T22:21:51;100975.99;;;4.08;67.94
43683;BME280;29285;52.128;21.060;2023-04-05T22:26:55;100965.27;;;4.13;68.24
43683;BME280;29285;52.128;21.060;2023-04-05T22:31:57;100965.95;;;4.13;68.17
43683;BME280;29285;52.128;21.060;2023-04-05T22:36:59;100960.20;;;4.08;67.93
43683;BME280;29285;52.128;21.060;2023-04-05T22:42:01;100967.81;;;4.02;67.68
43683;BME280;29285;52.128;21.060;2023-04-05T22:47:02;100960.60;;;4.03;67.89
43683;BME280;29285;52.128;21.060;2023-04-05T22:52:04;100964.06;;;4.04;67.91
43683;BME280;29285;52.128;21.060;2023-04-05T22:57:06;100964.07;;;4.04;67.80
43683;BME280;29285;52.128;21.060;2023-04-05T23:02:13;100959.27;;;4.05;67.83
43683;BME280;29285;52.128;21.060;2023-04-05T23:07:14;100954.63;;;4.04;67.79
43683;BME280;29285;52.128;21.060;2023-04-05T23:12:16;100948.58;;;4.03;67.97
43683;BME280;29285;52.128;21.060;2023-04-05T23:17:18;100942.86;;;4.00;67.94
43683;BME280;29285;52.128;21.060;2023-04-05T23:22:20;100943.47;;;3.96;67.95
43683;BME280;29285;52.128;21.060;2023-04-05T23:27:22;100950.19;;;3.97;67.70
43683;BME280;29285;52.128;21.060;2023-04-05T23:32:24;100942.65;;;3.98;67.63
43683;BME280;29285;52.128;21.060;2023-04-05T23:37:26;100937.91;;;3.93;67.75
43683;BME280;29285;52.128;21.060;2023-04-05T23:42:28;100933.48;;;3.95;67.71
43683;BME280;29285;52.128;21.060;2023-04-05T23:47:30;100933.68;;;3.96;67.77
43683;BME280;29285;52.128;21.060;2023-04-05T23:52:32;100933.80;;;3.94;67.64
43683;BME280;29285;52.128;21.060;2023-04-05T23:57:34;100928.98;;;3.93;67.56
